EmailTwitter


Surface observations / Canada / CYYZ (71624)

Regions: Quebec | Canada | USA | Europe | France | UK | Elsewhere
Station
Display
Info & Location for CYYZ (71624) | Help decoding METAR

Weather Conditions observed on 2018/05/28 at 09:00 UTC at TORONTO A, ON (CYYZ)

Sky conditions: few clouds.

Temperature: 15.0 Celsius.

Dewpoint: 14.0 Celsius.

Relative Humidity: 94%

Winds: South-southwest at 4 km/h or 2 knots.

Mean Sea level Pressure: 101.26 kilopascals.

Altimeter Setting (QNH): 101.25 kilopascals or 29.90 inches of mercury.

Horizontal visibility: 12.00 statute miles or 19.20 kilometers.

Coded METAR:

CYYZ 280900Z 20002KT 12SM FEW060 15/14 A2990 RMK SC1 SC TR SLP126 DENSITY ALT

800FT=